sensor_id;sensor_type;location;lat;lon;timestamp;pressure;altitude;pressure_sealevel;temperature;humidity
78407;BME280;67692;51.074;-1.790;2023-03-14T00:01:44;98298.41;;;10.84;82.46
78407;BME280;67692;51.074;-1.790;2023-03-14T00:04:11;98330.66;;;10.49;82.43
78407;BME280;67692;51.074;-1.790;2023-03-14T00:06:37;98341.78;;;10.17;81.17
78407;BME280;67692;51.074;-1.790;2023-03-14T00:09:04;98359.03;;;9.76;77.67
78407;BME280;67692;51.074;-1.790;2023-03-14T00:11:31;98362.91;;;9.38;77.98
78407;BME280;67692;51.074;-1.790;2023-03-14T00:13:57;98377.75;;;9.36;78.02
78407;BME280;67692;51.074;-1.790;2023-03-14T00:16:25;98393.41;;;9.26;76.77
78407;BME280;67692;51.074;-1.790;2023-03-14T00:18:53;98382.38;;;8.90;78.04
78407;BME280;67692;51.074;-1.790;2023-03-14T00:21:20;98403.91;;;8.81;77.21
78407;BME280;67692;51.074;-1.790;2023-03-14T00:23:46;98413.00;;;8.67;79.01
78407;BME280;67692;51.074;-1.790;2023-03-14T00:26:15;98422.22;;;8.52;80.97
78407;BME280;67692;51.074;-1.790;2023-03-14T00:28:45;98432.69;;;8.50;81.35
78407;BME280;67692;51.074;-1.790;2023-03-14T00:31:15;98442.88;;;8.34;81.18
78407;BME280;67692;51.074;-1.790;2023-03-14T00:33:42;98460.06;;;8.16;81.33
78407;BME280;67692;51.074;-1.790;2023-03-14T00:36:12;98447.31;;;8.14;80.29
78407;BME280;67692;51.074;-1.790;2023-03-14T00:38:40;98458.44;;;8.15;79.91
78407;BME280;67692;51.074;-1.790;2023-03-14T00:41:08;98457.63;;;8.14;79.27
78407;BME280;67692;51.074;-1.790;2023-03-14T00:43:35;98476.94;;;8.10;78.44
78407;BME280;67692;51.074;-1.790;2023-03-14T00:46:02;98491.47;;;8.01;76.92
78407;BME280;67692;51.074;-1.790;2023-03-14T00:48:29;98516.97;;;8.04;76.74
78407;BME280;67692;51.074;-1.790;2023-03-14T00:50:56;98503.25;;;8.04;76.20
78407;BME280;67692;51.074;-1.790;2023-03-14T00:53:24;98524.84;;;8.03;76.61
78407;BME280;67692;51.074;-1.790;2023-03-14T00:55:50;98504.06;;;8.04;76.53
78407;BME280;67692;51.074;-1.790;2023-03-14T00:58:18;98528.47;;;8.10;75.74
78407;BME280;67692;51.074;-1.790;2023-03-14T01:00:46;98528.38;;;8.02;74.52
78407;BME280;67692;51.074;-1.790;2023-03-14T01:03:13;98553.22;;;7.93;75.40
78407;BME280;67692;51.074;-1.790;2023-03-14T01:05:40;98563.00;;;7.90;74.07
78407;BME280;67692;51.074;-1.790;2023-03-14T01:08:07;98562.91;;;7.82;74.33
78407;BME280;67692;51.074;-1.790;2023-03-14T01:10:38;98575.53;;;7.75;74.50
78407;BME280;67692;51.074;-1.790;2023-03-14T01:13:05;98579.63;;;7.68;72.50
78407;BME280;67692;51.074;-1.790;2023-03-14T01:15:32;98592.38;;;7.60;72.81
78407;BME280;67692;51.074;-1.790;2023-03-14T01:17:58;98588.59;;;7.54;72.42
78407;BME280;67692;51.074;-1.790;2023-03-14T01:20:25;98599.28;;;7.50;72.34
78407;BME280;67692;51.074;-1.790;2023-03-14T01:22:52;98606.47;;;7.46;71.58
78407;BME280;67692;51.074;-1.790;2023-03-14T01:25:18;98625.72;;;7.32;72.06
78407;BME280;67692;51.074;-1.790;2023-03-14T01:27:46;98624.91;;;7.32;72.21
78407;BME280;67692;51.074;-1.790;2023-03-14T01:30:13;98643.22;;;7.29;73.49
78407;BME280;67692;51.074;-1.790;2023-03-14T01:32:40;98645.78;;;7.09;73.02
78407;BME280;67692;51.074;-1.790;2023-03-14T01:35:07;98673.41;;;7.17;73.25
78407;BME280;67692;51.074;-1.790;2023-03-14T01:37:34;98676.25;;;7.14;72.02
78407;BME280;67692;51.074;-1.790;2023-03-14T01:40:00;98699.94;;;7.08;71.37
78407;BME280;67692;51.074;-1.790;2023-03-14T01:42:29;98713.44;;;6.91;71.46
78407;BME280;67692;51.074;-1.790;2023-03-14T01:44:58;98726.16;;;6.92;71.79
78407;BME280;67692;51.074;-1.790;2023-03-14T01:47:25;98750.13;;;6.93;69.41
78407;BME280;67692;51.074;-1.790;2023-03-14T01:49:55;98764.91;;;6.91;68.96
78407;BME280;67692;51.074;-1.790;2023-03-14T01:52:23;98769.78;;;6.94;69.06
78407;BME280;67692;51.074;-1.790;2023-03-14T01:54:52;98787.50;;;6.87;67.57
78407;BME280;67692;51.074;-1.790;2023-03-14T01:57:23;98789.53;;;6.83;67.71
78407;BME280;67692;51.074;-1.790;2023-03-14T01:59:54;98810.72;;;6.76;66.45
78407;BME280;67692;51.074;-1.790;2023-03-14T02:02:24;98828.59;;;6.77;67.38
78407;BME280;67692;51.074;-1.790;2023-03-14T02:04:53;98838.72;;;6.69;66.36
78407;BME280;67692;51.074;-1.790;2023-03-14T02:07:22;98836.16;;;6.69;65.59
78407;BME280;67692;51.074;-1.790;2023-03-14T02:09:52;98854.72;;;6.73;65.80
78407;BME280;67692;51.074;-1.790;2023-03-14T02:12:20;98854.72;;;6.73;65.24
78407;BME280;67692;51.074;-1.790;2023-03-14T02:14:48;98865.25;;;6.70;65.24
78407;BME280;67692;51.074;-1.790;2023-03-14T02:17:16;98874.34;;;6.74;65.65
78407;BME280;67692;51.074;-1.790;2023-03-14T02:19:53;98876.03;;;6.64;66.04
78407;BME280;67692;51.074;-1.790;2023-03-14T02:22:24;98880.72;;;6.79;66.46
78407;BME280;67692;51.074;-1.790;2023-03-14T02:24:57;98889.78;;;6.74;66.72
78407;BME280;67692;51.074;-1.790;2023-03-14T02:27:29;98889.09;;;6.72;66.26
78407;BME280;67692;51.074;-1.790;2023-03-14T02:29:58;98911.22;;;6.63;66.42
78407;BME280;67692;51.074;-1.790;2023-03-14T02:32:26;98906.97;;;6.52;67.12
78407;BME280;67692;51.074;-1.790;2023-03-14T02:34:55;98901.06;;;6.41;66.97
78407;BME280;67692;51.074;-1.790;2023-03-14T02:37:24;98920.47;;;6.34;66.53
78407;BME280;67692;51.074;-1.790;2023-03-14T02:39:54;98911.97;;;6.22;67.52
78407;BME280;67692;51.074;-1.790;2023-03-14T02:42:21;98909.97;;;6.37;66.38
78407;BME280;67692;51.074;-1.790;2023-03-14T02:44:52;98936.06;;;6.53;66.33
78407;BME280;67692;51.074;-1.790;2023-03-14T02:47:22;98946.69;;;6.48;64.54
78407;BME280;67692;51.074;-1.790;2023-03-14T02:49:58;98955.94;;;6.51;65.41
78407;BME280;67692;51.074;-1.790;2023-03-14T02:52:26;98959.34;;;6.51;64.15
78407;BME280;67692;51.074;-1.790;2023-03-14T02:54:52;98962.94;;;6.49;63.63
78407;BME280;67692;51.074;-1.790;2023-03-14T02:57:19;98973.94;;;6.51;65.52
78407;BME280;67692;51.074;-1.790;2023-03-14T02:59:45;98978.44;;;6.70;65.98
78407;BME280;67692;51.074;-1.790;2023-03-14T03:02:13;98973.09;;;6.82;66.18
78407;BME280;67692;51.074;-1.790;2023-03-14T03:04:40;98983.28;;;6.84;66.26
78407;BME280;67692;51.074;-1.790;2023-03-14T03:07:07;98984.13;;;6.73;66.10
78407;BME280;67692;51.074;-1.790;2023-03-14T03:09:33;98996.06;;;6.74;67.06
78407;BME280;67692;51.074;-1.790;2023-03-14T03:12:00;98997.25;;;6.91;67.17
78407;BME280;67692;51.074;-1.790;2023-03-14T03:14:27;99007.63;;;7.01;66.91
78407;BME280;67692;51.074;-1.790;2023-03-14T03:16:53;99017.66;;;7.04;67.14
78407;BME280;67692;51.074;-1.790;2023-03-14T03:19:21;99027.91;;;7.15;66.38
78407;BME280;67692;51.074;-1.790;2023-03-14T03:21:48;99020.53;;;6.90;64.98
78407;BME280;67692;51.074;-1.790;2023-03-14T03:24:14;99034.19;;;7.01;66.65
78407;BME280;67692;51.074;-1.790;2023-03-14T03:26:41;99034.69;;;6.95;66.03
78407;BME280;67692;51.074;-1.790;2023-03-14T03:29:07;99039.19;;;6.82;66.09
78407;BME280;67692;51.074;-1.790;2023-03-14T03:31:36;99043.03;;;6.76;65.54
78407;BME280;67692;51.074;-1.790;2023-03-14T03:34:03;99053.03;;;6.91;66.30
78407;BME280;67692;51.074;-1.790;2023-03-14T03:36:31;99053.28;;;6.88;65.67
78407;BME280;67692;51.074;-1.790;2023-03-14T03:38:57;99073.16;;;6.97;65.77
78407;BME280;67692;51.074;-1.790;2023-03-14T03:41:24;99070.94;;;6.92;66.21
78407;BME280;67692;51.074;-1.790;2023-03-14T03:43:50;99063.69;;;6.97;65.07
78407;BME280;67692;51.074;-1.790;2023-03-14T03:46:17;99068.22;;;6.94;66.30
78407;BME280;67692;51.074;-1.790;2023-03-14T03:48:44;99081.88;;;7.05;66.62
78407;BME280;67692;51.074;-1.790;2023-03-14T03:51:12;99076.97;;;7.02;65.53
78407;BME280;67692;51.074;-1.790;2023-03-14T03:53:41;99076.59;;;7.07;65.97
78407;BME280;67692;51.074;-1.790;2023-03-14T03:56:08;99083.38;;;7.08;67.04
78407;BME280;67692;51.074;-1.790;2023-03-14T03:58:35;99093.22;;;7.14;68.00
78407;BME280;67692;51.074;-1.790;2023-03-14T04:01:04;99110.16;;;7.16;67.14
78407;BME280;67692;51.074;-1.790;2023-03-14T04:03:31;99119.25;;;7.21;66.35
78407;BME280;67692;51.074;-1.790;2023-03-14T04:05:58;99121.91;;;7.30;67.50
78407;BME280;67692;51.074;-1.790;2023-03-14T04:08:25;99116.53;;;7.33;66.75
78407;BME280;67692;51.074;-1.790;2023-03-14T04:10:55;99124.06;;;7.25;66.29
78407;BME280;67692;51.074;-1.790;2023-03-14T04:13:22;99135.16;;;7.26;66.43
78407;BME280;67692;51.074;-1.790;2023-03-14T04:15:49;99133.97;;;7.30;66.73
78407;BME280;67692;51.074;-1.790;2023-03-14T04:18:15;99138.50;;;7.37;66.61
78407;BME280;67692;51.074;-1.790;2023-03-14T04:20:42;99135.41;;;7.23;66.66
78407;BME280;67692;51.074;-1.790;2023-03-14T04:23:09;99155.38;;;7.30;66.47
78407;BME280;67692;51.074;-1.790;2023-03-14T04:25:35;99156.13;;;7.21;69.32
78407;BME280;67692;51.074;-1.790;2023-03-14T04:28:03;99167.00;;;7.25;67.05
78407;BME280;67692;51.074;-1.790;2023-03-14T04:30:30;99160.00;;;7.15;67.47
78407;BME280;67692;51.074;-1.790;2023-03-14T04:32:56;99172.50;;;7.20;68.34
78407;BME280;67692;51.074;-1.790;2023-03-14T04:35:23;99173.47;;;7.08;67.90
78407;BME280;67692;51.074;-1.790;2023-03-14T04:37:49;99178.97;;;7.14;68.62
78407;BME280;67692;51.074;-1.790;2023-03-14T04:40:17;99181.22;;;6.97;68.50
78407;BME280;67692;51.074;-1.790;2023-03-14T04:42:44;99195.72;;;7.09;68.27
78407;BME280;67692;51.074;-1.790;2023-03-14T04:45:12;99199.44;;;7.05;68.02
78407;BME280;67692;51.074;-1.790;2023-03-14T04:47:38;99204.34;;;7.08;68.36
78407;BME280;67692;51.074;-1.790;2023-03-14T04:50:05;99207.84;;;7.07;68.07
78407;BME280;67692;51.074;-1.790;2023-03-14T04:52:32;99214.00;;;6.83;68.52
78407;BME280;67692;51.074;-1.790;2023-03-14T04:54:59;99221.78;;;6.93;69.63
78407;BME280;67692;51.074;-1.790;2023-03-14T04:57:25;99224.03;;;6.98;69.41
78407;BME280;67692;51.074;-1.790;2023-03-14T04:59:52;99228.44;;;7.07;68.83
78407;BME280;67692;51.074;-1.790;2023-03-14T05:02:20;99223.28;;;7.18;68.63
78407;BME280;67692;51.074;-1.790;2023-03-14T05:04:47;99231.47;;;7.23;68.47
78407;BME280;67692;51.074;-1.790;2023-03-14T05:07:13;99238.50;;;7.21;68.39
78407;BME280;67692;51.074;-1.790;2023-03-14T05:09:40;99241.09;;;7.10;68.22
78407;BME280;67692;51.074;-1.790;2023-03-14T05:12:06;99241.31;;;7.18;68.99
78407;BME280;67692;51.074;-1.790;2023-03-14T05:14:33;99246.47;;;7.07;68.54
78407;BME280;67692;51.074;-1.790;2023-03-14T05:17:00;99247.88;;;7.11;68.71
78407;BME280;67692;51.074;-1.790;2023-03-14T05:19:28;99258.88;;;7.02;67.64
78407;BME280;67692;51.074;-1.790;2023-03-14T05:21:54;99254.22;;;6.96;67.70
78407;BME280;67692;51.074;-1.790;2023-03-14T05:24:21;99250.59;;;6.98;68.25
78407;BME280;67692;51.074;-1.790;2023-03-14T05:26:47;99244.63;;;6.98;69.68
78407;BME280;67692;51.074;-1.790;2023-03-14T05:29:14;99234.56;;;6.95;68.90
78407;BME280;67692;51.074;-1.790;2023-03-14T05:31:41;99246.84;;;6.91;68.69
78407;BME280;67692;51.074;-1.790;2023-03-14T05:34:07;99260.31;;;6.95;68.14
78407;BME280;67692;51.074;-1.790;2023-03-14T05:36:35;99261.44;;;6.91;67.77
78407;BME280;67692;51.074;-1.790;2023-03-14T05:39:02;99273.16;;;6.95;68.13
78407;BME280;67692;51.074;-1.790;2023-03-14T05:41:28;99275.50;;;6.86;67.90
78407;BME280;67692;51.074;-1.790;2023-03-14T05:43:55;99280.19;;;6.81;67.37
78407;BME280;67692;51.074;-1.790;2023-03-14T05:46:21;99286.72;;;6.74;67.33
78407;BME280;67692;51.074;-1.790;2023-03-14T05:48:48;99295.00;;;6.78;67.54
78407;BME280;67692;51.074;-1.790;2023-03-14T05:51:15;99308.47;;;6.70;66.63
78407;BME280;67692;51.074;-1.790;2023-03-14T05:53:43;99309.16;;;6.72;67.11
78407;BME280;67692;51.074;-1.790;2023-03-14T05:56:09;99306.94;;;6.79;67.74
78407;BME280;67692;51.074;-1.790;2023-03-14T05:58:36;99316.88;;;6.72;66.86
78407;BME280;67692;51.074;-1.790;2023-03-14T06:01:04;99324.25;;;6.66;66.91
78407;BME280;67692;51.074;-1.790;2023-03-14T06:03:31;99330.63;;;6.49;67.03
78407;BME280;67692;51.074;-1.790;2023-03-14T06:05:58;99338.56;;;6.46;67.25
78407;BME280;67692;51.074;-1.790;2023-03-14T06:08:25;99346.59;;;6.30;67.04
78407;BME280;67692;51.074;-1.790;2023-03-14T06:10:53;99344.94;;;6.29;68.62
78407;BME280;67692;51.074;-1.790;2023-03-14T06:13:20;99357.91;;;6.28;67.92
78407;BME280;67692;51.074;-1.790;2023-03-14T06:15:47;99365.09;;;6.11;67.25
78407;BME280;67692;51.074;-1.790;2023-03-14T06:18:13;99374.69;;;6.20;69.14
78407;BME280;67692;51.074;-1.790;2023-03-14T06:20:40;99382.03;;;6.14;68.41
78407;BME280;67692;51.074;-1.790;2023-03-14T06:23:07;99380.00;;;6.30;68.57
78407;BME280;67692;51.074;-1.790;2023-03-14T06:25:34;99393.69;;;6.31;68.91
78407;BME280;67692;51.074;-1.790;2023-03-14T06:28:03;99392.03;;;6.30;68.14
78407;BME280;67692;51.074;-1.790;2023-03-14T06:30:29;99397.13;;;6.18;68.32
78407;BME280;67692;51.074;-1.790;2023-03-14T06:32:56;99400.13;;;6.12;67.59
78407;BME280;67692;51.074;-1.790;2023-03-14T06:35:23;99407.50;;;6.17;69.43
78407;BME280;67692;51.074;-1.790;2023-03-14T06:37:49;99408.84;;;6.22;68.94
78407;BME280;67692;51.074;-1.790;2023-03-14T06:40:16;99408.97;;;6.32;69.15
78407;BME280;67692;51.074;-1.790;2023-03-14T06:42:43;99420.59;;;6.38;68.84
78407;BME280;67692;51.074;-1.790;2023-03-14T06:45:11;99429.00;;;6.40;68.68
78407;BME280;67692;51.074;-1.790;2023-03-14T06:47:38;99439.56;;;6.24;68.70
78407;BME280;67692;51.074;-1.790;2023-03-14T06:50:06;99446.19;;;6.15;69.05
78407;BME280;67692;51.074;-1.790;2023-03-14T06:52:32;99450.16;;;6.19;68.32
78407;BME280;67692;51.074;-1.790;2023-03-14T06:54:59;99458.22;;;6.15;69.64
78407;BME280;67692;51.074;-1.790;2023-03-14T06:57:26;99457.28;;;6.16;70.02
78407;BME280;67692;51.074;-1.790;2023-03-14T06:59:52;99469.38;;;6.26;70.24
78407;BME280;67692;51.074;-1.790;2023-03-14T07:02:20;99455.25;;;6.32;67.87
78407;BME280;67692;51.074;-1.790;2023-03-14T07:04:48;99471.63;;;6.31;67.74
78407;BME280;67692;51.074;-1.790;2023-03-14T07:07:14;99475.44;;;6.25;68.66
78407;BME280;67692;51.074;-1.790;2023-03-14T07:09:41;99485.81;;;6.37;69.17
78407;BME280;67692;51.074;-1.790;2023-03-14T07:12:08;99491.75;;;6.37;68.29
78407;BME280;67692;51.074;-1.790;2023-03-14T07:14:34;99502.63;;;6.41;69.09
78407;BME280;67692;51.074;-1.790;2023-03-14T07:17:01;99508.59;;;6.41;67.66
78407;BME280;67692;51.074;-1.790;2023-03-14T07:19:29;99514.78;;;6.39;68.71
78407;BME280;67692;51.074;-1.790;2023-03-14T07:21:55;99536.84;;;6.17;68.91
78407;BME280;67692;51.074;-1.790;2023-03-14T07:24:22;99541.16;;;6.17;68.52
78407;BME280;67692;51.074;-1.790;2023-03-14T07:26:49;99537.13;;;6.25;67.99
78407;BME280;67692;51.074;-1.790;2023-03-14T07:29:15;99538.59;;;6.17;68.87
78407;BME280;67692;51.074;-1.790;2023-03-14T07:31:42;99556.34;;;6.20;67.76
78407;BME280;67692;51.074;-1.790;2023-03-14T07:34:09;99566.06;;;6.04;67.16
78407;BME280;67692;51.074;-1.790;2023-03-14T07:36:37;99557.84;;;6.11;68.94
78407;BME280;67692;51.074;-1.790;2023-03-14T07:39:03;99573.41;;;6.21;69.48
78407;BME280;67692;51.074;-1.790;2023-03-14T07:41:30;99588.78;;;6.22;69.65
78407;BME280;67692;51.074;-1.790;2023-03-14T07:43:57;99587.09;;;6.21;68.96
78407;BME280;67692;51.074;-1.790;2023-03-14T07:46:24;99589.88;;;6.31;69.90
78407;BME280;67692;51.074;-1.790;2023-03-14T07:48:51;99603.97;;;6.25;68.71
78407;BME280;67692;51.074;-1.790;2023-03-14T07:51:17;99612.06;;;6.32;68.95
78407;BME280;67692;51.074;-1.790;2023-03-14T07:53:45;99610.03;;;6.37;68.42
78407;BME280;67692;51.074;-1.790;2023-03-14T07:56:12;99612.41;;;6.15;69.24
78407;BME280;67692;51.074;-1.790;2023-03-14T07:58:38;99616.50;;;6.05;69.41
78407;BME280;67692;51.074;-1.790;2023-03-14T08:01:05;99634.41;;;6.06;70.11
78407;BME280;67692;51.074;-1.790;2023-03-14T08:03:32;99638.22;;;6.13;70.16
78407;BME280;67692;51.074;-1.790;2023-03-14T08:05:58;99651.78;;;6.15;70.33
78407;BME280;67692;51.074;-1.790;2023-03-14T08:08:25;99656.31;;;6.37;71.11
78407;BME280;67692;51.074;-1.790;2023-03-14T08:10:53;99667.41;;;6.38;70.58
78407;BME280;67692;51.074;-1.790;2023-03-14T08:13:19;99677.47;;;6.41;70.39
78407;BME280;67692;51.074;-1.790;2023-03-14T08:15:48;99683.44;;;6.54;69.78
78407;BME280;67692;51.074;-1.790;2023-03-14T08:18:14;99687.22;;;6.61;69.60
78407;BME280;67692;51.074;-1.790;2023-03-14T08:20:41;99702.38;;;6.53;68.66
78407;BME280;67692;51.074;-1.790;2023-03-14T08:23:08;99705.44;;;6.33;67.34
78407;BME280;67692;51.074;-1.790;2023-03-14T08:25:34;99720.06;;;6.45;68.40
78407;BME280;67692;51.074;-1.790;2023-03-14T08:28:02;99724.25;;;6.33;67.77
78407;BME280;67692;51.074;-1.790;2023-03-14T08:30:29;99731.69;;;6.38;67.91
78407;BME280;67692;51.074;-1.790;2023-03-14T08:32:57;99747.63;;;6.43;66.48
78407;BME280;67692;51.074;-1.790;2023-03-14T08:35:24;99744.72;;;6.47;66.10
78407;BME280;67692;51.074;-1.790;2023-03-14T08:37:50;99758.94;;;6.53;65.87
78407;BME280;67692;51.074;-1.790;2023-03-14T08:40:17;99759.16;;;6.37;66.68
78407;BME280;67692;51.074;-1.790;2023-03-14T08:42:45;99778.13;;;6.22;65.97
78407;BME280;67692;51.074;-1.790;2023-03-14T08:45:14;99773.72;;;6.24;67.54
78407;BME280;67692;51.074;-1.790;2023-03-14T08:47:41;99782.53;;;6.20;67.76
78407;BME280;67692;51.074;-1.790;2023-03-14T08:50:10;99786.69;;;6.35;67.84
78407;BME280;67692;51.074;-1.790;2023-03-14T08:52:37;99804.41;;;6.40;66.29
78407;BME280;67692;51.074;-1.790;2023-03-14T08:55:06;99812.19;;;6.25;66.32
78407;BME280;67692;51.074;-1.790;2023-03-14T08:57:33;99817.13;;;6.29;65.15
78407;BME280;67692;51.074;-1.790;2023-03-14T09:00:00;99824.13;;;6.26;64.74
78407;BME280;67692;51.074;-1.790;2023-03-14T09:02:28;99832.22;;;6.20;64.53
78407;BME280;67692;51.074;-1.790;2023-03-14T09:04:54;99845.59;;;6.25;65.56
78407;BME280;67692;51.074;-1.790;2023-03-14T09:07:21;99846.31;;;6.28;65.03
78407;BME280;67692;51.074;-1.790;2023-03-14T09:09:48;99856.09;;;6.22;64.89
78407;BME280;67692;51.074;-1.790;2023-03-14T09:12:14;99870.38;;;6.26;65.57
78407;BME280;67692;51.074;-1.790;2023-03-14T09:14:41;99874.81;;;6.24;64.72
78407;BME280;67692;51.074;-1.790;2023-03-14T09:17:07;99875.91;;;6.20;65.75
78407;BME280;67692;51.074;-1.790;2023-03-14T09:19:36;99881.59;;;6.25;66.66
78407;BME280;67692;51.074;-1.790;2023-03-14T09:22:02;99897.75;;;6.28;65.75
78407;BME280;67692;51.074;-1.790;2023-03-14T09:24:29;99903.59;;;6.30;65.82
78407;BME280;67692;51.074;-1.790;2023-03-14T09:26:56;99906.19;;;6.30;66.25
78407;BME280;67692;51.074;-1.790;2023-03-14T09:29:22;99911.13;;;6.33;66.18
78407;BME280;67692;51.074;-1.790;2023-03-14T09:31:49;99920.47;;;6.34;66.29
78407;BME280;67692;51.074;-1.790;2023-03-14T09:34:16;99929.66;;;6.38;66.60
78407;BME280;67692;51.074;-1.790;2023-03-14T09:36:44;99951.28;;;6.48;66.23
78407;BME280;67692;51.074;-1.790;2023-03-14T09:39:11;99955.75;;;6.32;67.57
78407;BME280;67692;51.074;-1.790;2023-03-14T09:41:39;99965.16;;;6.18;70.25
78407;BME280;67692;51.074;-1.790;2023-03-14T09:44:11;99963.34;;;5.92;73.62
78407;BME280;67692;51.074;-1.790;2023-03-14T09:46:41;99972.44;;;5.83;74.82
78407;BME280;67692;51.074;-1.790;2023-03-14T09:49:12;99983.25;;;5.74;74.44
78407;BME280;67692;51.074;-1.790;2023-03-14T09:51:44;100000.78;;;5.82;74.13
78407;BME280;67692;51.074;-1.790;2023-03-14T09:54:23;100002.97;;;5.88;75.04
78407;BME280;67692;51.074;-1.790;2023-03-14T09:56:53;100020.72;;;5.92;74.60
78407;BME280;67692;51.074;-1.790;2023-03-14T09:59:20;100029.28;;;5.63;75.49
78407;BME280;67692;51.074;-1.790;2023-03-14T10:01:47;100035.06;;;5.38;77.11
78407;BME280;67692;51.074;-1.790;2023-03-14T10:04:15;100035.84;;;5.24;79.37
78407;BME280;67692;51.074;-1.790;2023-03-14T10:06:46;100044.06;;;5.15;81.56
78407;BME280;67692;51.074;-1.790;2023-03-14T10:09:18;100055.69;;;5.06;80.29
78407;BME280;67692;51.074;-1.790;2023-03-14T10:11:54;100060.88;;;5.21;80.48
78407;BME280;67692;51.074;-1.790;2023-03-14T10:14:32;100065.69;;;5.41;79.69
78407;BME280;67692;51.074;-1.790;2023-03-14T10:17:07;100079.47;;;5.54;79.05
78407;BME280;67692;51.074;-1.790;2023-03-14T10:19:35;100080.84;;;5.60;78.42
78407;BME280;67692;51.074;-1.790;2023-03-14T10:22:05;100088.66;;;5.73;75.95
78407;BME280;67692;51.074;-1.790;2023-03-14T10:24:36;100102.53;;;5.84;76.10
78407;BME280;67692;51.074;-1.790;2023-03-14T10:27:04;100101.72;;;5.84;72.97
78407;BME280;67692;51.074;-1.790;2023-03-14T10:29:33;100112.13;;;5.96;71.99
78407;BME280;67692;51.074;-1.790;2023-03-14T10:32:01;100111.47;;;6.07;72.44
78407;BME280;67692;51.074;-1.790;2023-03-14T10:34:30;100121.41;;;6.13;73.32
78407;BME280;67692;51.074;-1.790;2023-03-14T10:36:59;100125.72;;;6.27;72.04
78407;BME280;67692;51.074;-1.790;2023-03-14T10:39:39;100139.84;;;6.34;70.17
78407;BME280;67692;51.074;-1.790;2023-03-14T10:42:15;100152.59;;;6.21;70.38
78407;BME280;67692;51.074;-1.790;2023-03-14T10:44:46;100159.97;;;6.28;69.07
78407;BME280;67692;51.074;-1.790;2023-03-14T10:47:19;100160.50;;;6.33;68.85
78407;BME280;67692;51.074;-1.790;2023-03-14T10:49:46;100166.28;;;6.22;69.63
78407;BME280;67692;51.074;-1.790;2023-03-14T10:52:18;100167.88;;;6.39;69.71
78407;BME280;67692;51.074;-1.790;2023-03-14T10:54:54;100179.25;;;6.49;68.71
78407;BME280;67692;51.074;-1.790;2023-03-14T10:57:21;100197.81;;;6.54;67.29
78407;BME280;67692;51.074;-1.790;2023-03-14T10:59:48;100192.69;;;6.54;68.60
78407;BME280;67692;51.074;-1.790;2023-03-14T11:02:36;100201.28;;;6.81;67.57
78407;BME280;67692;51.074;-1.790;2023-03-14T11:05:15;100205.84;;;7.05;66.49
78407;BME280;67692;51.074;-1.790;2023-03-14T11:07:44;100213.56;;;7.05;65.92
78407;BME280;67692;51.074;-1.790;2023-03-14T11:10:19;100221.16;;;7.21;64.48
78407;BME280;67692;51.074;-1.790;2023-03-14T11:12:57;100236.38;;;6.97;62.72
78407;BME280;67692;51.074;-1.790;2023-03-14T11:15:34;100247.97;;;6.75;64.93
78407;BME280;67692;51.074;-1.790;2023-03-14T11:18:31;100261.75;;;6.74;66.73
78407;BME280;67692;51.074;-1.790;2023-03-14T11:21:07;100266.72;;;6.77;66.51
78407;BME280;67692;51.074;-1.790;2023-03-14T11:23:41;100282.53;;;6.85;65.53
78407;BME280;67692;51.074;-1.790;2023-03-14T11:26:20;100285.44;;;6.79;66.16
78407;BME280;67692;51.074;-1.790;2023-03-14T11:28:57;100289.69;;;6.66;65.56
78407;BME280;67692;51.074;-1.790;2023-03-14T11:31:26;100291.88;;;6.58;67.34
78407;BME280;67692;51.074;-1.790;2023-03-14T11:33:56;100291.69;;;6.61;66.61
78407;BME280;67692;51.074;-1.790;2023-03-14T11:36:30;100298.41;;;6.64;68.01
78407;BME280;67692;51.074;-1.790;2023-03-14T11:38:58;100306.13;;;6.64;67.79
78407;BME280;67692;51.074;-1.790;2023-03-14T11:41:31;100297.41;;;6.66;67.18
78407;BME280;67692;51.074;-1.790;2023-03-14T11:44:04;100297.59;;;6.77;68.12
78407;BME280;67692;51.074;-1.790;2023-03-14T11:46:38;100299.63;;;6.86;66.98
78407;BME280;67692;51.074;-1.790;2023-03-14T11:49:13;100307.34;;;7.01;67.77
78407;BME280;67692;51.074;-1.790;2023-03-14T11:51:46;100313.59;;;6.97;63.39
78407;BME280;67692;51.074;-1.790;2023-03-14T11:54:14;100304.56;;;7.18;64.72
78407;BME280;67692;51.074;-1.790;2023-03-14T11:56:47;100300.50;;;7.42;63.28
78407;BME280;67692;51.074;-1.790;2023-03-14T11:59:17;100316.84;;;7.56;63.42
78407;BME280;67692;51.074;-1.790;2023-03-14T12:01:52;100320.72;;;7.49;59.82
78407;BME280;67692;51.074;-1.790;2023-03-14T12:04:38;100323.44;;;7.60;60.23
78407;BME280;67692;51.074;-1.790;2023-03-14T12:07:14;100330.47;;;7.43;59.72
78407;BME280;67692;51.074;-1.790;2023-03-14T12:09:44;100337.69;;;7.38;61.23
78407;BME280;67692;51.074;-1.790;2023-03-14T12:12:14;100334.50;;;7.47;60.30
78407;BME280;67692;51.074;-1.790;2023-03-14T12:14:46;100342.31;;;7.60;61.45
78407;BME280;67692;51.074;-1.790;2023-03-14T12:17:20;100337.47;;;7.56;61.62
78407;BME280;67692;51.074;-1.790;2023-03-14T12:19:47;100348.78;;;7.80;63.09
78407;BME280;67692;51.074;-1.790;2023-03-14T12:22:26;100358.75;;;7.72;61.44
78407;BME280;67692;51.074;-1.790;2023-03-14T12:24:57;100352.06;;;7.69;60.93
78407;BME280;67692;51.074;-1.790;2023-03-14T12:27:46;100366.25;;;7.48;59.73
78407;BME280;67692;51.074;-1.790;2023-03-14T12:30:23;100367.66;;;7.25;60.15
78407;BME280;67692;51.074;-1.790;2023-03-14T12:36:31;100363.06;;;7.30;61.18
78407;BME280;67692;51.074;-1.790;2023-03-14T12:39:20;100366.13;;;7.64;59.36
78407;BME280;67692;51.074;-1.790;2023-03-14T12:41:52;100358.00;;;7.84;59.51
78407;BME280;67692;51.074;-1.790;2023-03-14T12:44:46;100355.69;;;8.06;59.96
78407;BME280;67692;51.074;-1.790;2023-03-14T12:47:47;100356.81;;;8.29;57.76
78407;BME280;67692;51.074;-1.790;2023-03-14T12:50:20;100350.44;;;8.35;59.94
78407;BME280;67692;51.074;-1.790;2023-03-14T12:53:14;100372.38;;;8.42;59.59
78407;BME280;67692;51.074;-1.790;2023-03-14T12:55:46;100364.88;;;7.98;57.43
78407;BME280;67692;51.074;-1.790;2023-03-14T12:58:17;100371.81;;;7.83;55.86
78407;BME280;67692;51.074;-1.790;2023-03-14T13:00:55;100371.81;;;7.83;57.52
78407;BME280;67692;51.074;-1.790;2023-03-14T13:03:25;100376.97;;;7.83;57.04
78407;BME280;67692;51.074;-1.790;2023-03-14T13:05:55;100373.84;;;7.78;56.79
78407;BME280;67692;51.074;-1.790;2023-03-14T13:08:37;100375.69;;;7.76;56.98
78407;BME280;67692;51.074;-1.790;2023-03-14T13:11:08;100380.28;;;7.85;57.03